Time;durP1;ratioP1;P1;durP2;ratioP2;P2;SDS_P1;SDS_P2;PMS_P1;PMS_P2;Temp;Humidity;BMP_temperature;BMP_pressure;BME280_temperature;BME280_humidity;BME280_pressure;Samples;Min_cycle;Max_cycle;Signal;HPM_P1;HPM_P2
2023/07/04 00:01:15;;;;;;;228.87;215.83;;;14.90;93.50;;;;;;5008904;28;20185;-67
2023/07/04 00:03:45;;;;;;;243.37;229.13;;;14.80;93.20;;;;;;5008024;28;20327;-69
2023/07/04 00:06:17;;;;;;;235.30;222.03;;;14.80;93.30;;;;;;5010438;28;20368;-66
2023/07/04 00:08:45;;;;;;;227.63;214.87;;;14.80;93.20;;;;;;5004901;28;20197;-66
2023/07/04 00:11:13;;;;;;;230.70;217.33;;;14.90;93.00;;;;;;5012997;28;20197;-65
2023/07/04 00:13:40;;;;;;;220.23;207.87;;;15.00;93.10;;;;;;5005200;28;20194;-65
2023/07/04 00:16:10;;;;;;;209.40;197.50;;;15.10;93.10;;;;;;5007619;28;20189;-66
2023/07/04 00:18:38;;;;;;;217.87;205.73;;;15.10;92.90;;;;;;5008197;28;20558;-65
2023/07/04 00:21:11;;;;;;;223.40;210.97;;;14.90;92.50;;;;;;5004833;28;20186;-66
2023/07/04 00:23:41;;;;;;;228.50;215.60;;;14.90;92.70;;;;;;5005096;28;20193;-68
2023/07/04 00:26:09;;;;;;;234.60;221.70;;;15.00;92.70;;;;;;5010102;28;20190;-66
2023/07/04 00:28:40;;;;;;;228.40;215.60;;;15.00;92.70;;;;;;5009390;28;20648;-66
2023/07/04 00:31:10;;;;;;;238.77;225.33;;;15.00;92.70;;;;;;5012564;28;20191;-66
2023/07/04 00:33:39;;;;;;;246.83;232.57;;;15.10;92.70;;;;;;5007279;28;20274;-67
2023/07/04 00:36:10;;;;;;;235.93;222.57;;;15.10;92.60;;;;;;5002698;28;20311;-66
2023/07/04 00:38:41;;;;;;;301.90;286.07;;;15.10;92.50;;;;;;4990168;28;20622;-67
2023/07/04 00:41:23;;;;;;;321.73;304.77;;;15.10;92.40;;;;;;5012319;28;20196;-66
2023/07/04 00:44:47;;;;;;;321.87;304.40;;;15.10;92.50;;;;;;5009791;28;20646;-66
2023/07/04 00:47:06;;;;;;;330.97;313.27;;;15.20;92.60;;;;;;5000508;28;20306;-67
2023/07/04 00:49:44;;;;;;;331.27;314.53;;;15.20;92.60;;;;;;5005971;28;20208;-66
2023/07/04 00:52:17;;;;;;;349.93;331.90;;;15.10;92.30;;;;;;5004281;28;20182;-68
2023/07/04 00:54:52;;;;;;;374.43;354.63;;;15.10;92.50;;;;;;5004616;28;20884;-67
2023/07/04 00:57:25;;;;;;;357.03;339.03;;;15.20;92.60;;;;;;5004998;28;20188;-66
2023/07/04 00:59:58;;;;;;;358.27;338.93;;;15.10;92.50;;;;;;5007307;28;20672;-67
2023/07/04 01:02:34;;;;;;;350.67;332.30;;;15.10;92.70;;;;;;5008593;28;20227;-66
2023/07/04 01:05:06;;;;;;;351.60;333.30;;;15.10;92.60;;;;;;5001876;28;20260;-67
2023/07/04 01:08:04;;;;;;;361.17;342.17;;;15.10;92.60;;;;;;5005352;28;20563;-65
2023/07/04 01:10:40;;;;;;;357.20;338.50;;;15.10;92.70;;;;;;5007422;28;20177;-67
2023/07/04 01:13:33;;;;;;;354.53;335.77;;;15.10;92.80;;;;;;5007381;28;20182;-68
2023/07/04 01:16:17;;;;;;;362.37;343.23;;;15.20;92.80;;;;;;5007163;28;20177;-68
2023/07/04 01:18:47;;;;;;;365.40;346.23;;;15.20;92.80;;;;;;5007333;28;20183;-67
2023/07/04 01:21:17;;;;;;;363.60;344.37;;;15.30;92.80;;;;;;5005015;28;20233;-67
2023/07/04 01:23:54;;;;;;;365.63;346.23;;;15.40;92.90;;;;;;5005073;28;20546;-67
2023/07/04 01:26:24;;;;;;;362.87;344.13;;;15.50;92.80;;;;;;5006286;28;20191;-66
2023/07/04 01:28:53;;;;;;;367.10;348.03;;;15.70;92.90;;;;;;5004443;28;20201;-68
2023/07/04 01:31:23;;;;;;;363.33;344.03;;;15.80;92.60;;;;;;5004146;28;20245;-67
2023/07/04 01:33:50;;;;;;;361.27;342.20;;;15.90;92.60;;;;;;5006861;28;20289;-69
2023/07/04 01:36:24;;;;;;;348.47;330.53;;;15.80;91.90;;;;;;5005898;28;20230;-65
2023/07/04 01:38:52;;;;;;;315.90;299.53;;;15.80;92.20;;;;;;5006873;28;20601;-66
2023/07/04 01:41:21;;;;;;;320.37;304.17;;;15.80;91.90;;;;;;5005683;28;20189;-66
2023/07/04 01:43:53;;;;;;;319.47;303.13;;;15.80;92.40;;;;;;5005564;28;20584;-68
2023/07/04 01:46:21;;;;;;;321.87;305.30;;;15.80;91.90;;;;;;5008603;28;20194;-67
2023/07/04 01:48:48;;;;;;;309.30;293.53;;;15.90;92.00;;;;;;5009329;28;20199;-66
2023/07/04 01:51:16;;;;;;;306.27;290.37;;;15.70;91.90;;;;;;5009135;28;20270;-68
2023/07/04 01:53:43;;;;;;;315.63;299.30;;;15.80;92.00;;;;;;5002961;28;20196;-66
2023/07/04 01:56:10;;;;;;;306.93;290.87;;;15.80;91.90;;;;;;5002749;28;20207;-67
2023/07/04 01:58:38;;;;;;;311.60;295.77;;;15.80;92.00;;;;;;5005254;28;20644;-67
2023/07/04 02:01:05;;;;;;;317.20;300.90;;;15.80;92.10;;;;;;5002964;28;20269;-66
2023/07/04 02:03:32;;;;;;;324.90;307.63;;;15.80;92.10;;;;;;5006537;28;20242;-66
2023/07/04 02:06:01;;;;;;;332.10;314.97;;;16.00;92.20;;;;;;5003874;28;20522;-67
2023/07/04 02:08:28;;;;;;;314.17;297.57;;;16.20;92.10;;;;;;5005154;28;20275;-68
2023/07/04 02:10:55;;;;;;;305.57;290.10;;;16.30;91.90;;;;;;5005600;28;20238;-66
2023/07/04 02:13:23;;;;;;;294.30;279.53;;;16.20;91.80;;;;;;5000580;28;20193;-66
2023/07/04 02:15:51;;;;;;;287.03;271.93;;;16.20;91.50;;;;;;5007226;28;20193;-68
2023/07/04 02:18:19;;;;;;;296.03;281.00;;;16.20;91.70;;;;;;5003734;28;20593;-66
2023/07/04 02:20:46;;;;;;;276.07;261.60;;;16.20;91.80;;;;;;5000966;28;20194;-66
2023/07/04 02:23:13;;;;;;;265.07;251.20;;;16.10;91.50;;;;;;5003143;28;20543;-66
2023/07/04 02:25:42;;;;;;;288.23;273.20;;;16.20;91.70;;;;;;5005529;28;20680;-67
2023/07/04 02:28:10;;;;;;;296.37;281.17;;;16.20;91.80;;;;;;5005957;28;20233;-69
2023/07/04 02:30:38;;;;;;;272.30;258.17;;;16.30;91.60;;;;;;5004710;28;20247;-67
2023/07/04 02:33:05;;;;;;;275.00;260.40;;;16.20;91.40;;;;;;5001358;28;20228;-68
2023/07/04 02:35:33;;;;;;;284.30;269.63;;;16.10;91.10;;;;;;5003347;28;20290;-68
2023/07/04 02:38:00;;;;;;;284.17;269.63;;;16.20;91.60;;;;;;5003437;28;20648;-66
2023/07/04 02:40:27;;;;;;;316.00;299.80;;;16.20;91.60;;;;;;5000298;28;20189;-69
2023/07/04 02:42:54;;;;;;;298.17;282.33;;;16.20;91.60;;;;;;5000874;28;20197;-66
2023/07/04 02:45:22;;;;;;;306.00;290.53;;;16.10;91.50;;;;;;5005687;28;20631;-66
2023/07/04 02:47:49;;;;;;;299.10;283.77;;;15.90;91.50;;;;;;5007596;28;20229;-69
2023/07/04 02:50:16;;;;;;;312.83;296.93;;;15.90;91.60;;;;;;5004758;28;20203;-66
2023/07/04 02:52:44;;;;;;;324.33;307.93;;;16.00;91.90;;;;;;5008080;28;20187;-67
2023/07/04 02:55:11;;;;;;;327.00;310.77;;;15.90;91.80;;;;;;5007852;28;20550;-68
2023/07/04 02:57:39;;;;;;;308.83;293.20;;;15.90;92.10;;;;;;5005656;28;20199;-67
2023/07/04 03:00:07;;;;;;;309.53;293.97;;;15.90;91.80;;;;;;5004701;28;20185;-68
2023/07/04 03:02:34;;;;;;;327.63;310.87;;;15.80;91.90;;;;;;5004214;28;20191;-66
2023/07/04 03:05:01;;;;;;;333.07;315.87;;;15.90;92.10;;;;;;5005415;28;20208;-66
2023/07/04 03:07:29;;;;;;;332.47;315.17;;;15.80;91.90;;;;;;5003607;28;20230;-67
2023/07/04 03:09:56;;;;;;;355.43;336.73;;;15.80;92.30;;;;;;5008143;28;20184;-67
2023/07/04 03:12:23;;;;;;;373.80;353.77;;;15.80;92.40;;;;;;4986379;28;20581;-66
2023/07/04 03:14:51;;;;;;;372.27;352.53;;;15.90;92.50;;;;;;5003796;28;20609;-67
2023/07/04 03:17:18;;;;;;;354.80;336.07;;;15.90;92.20;;;;;;5008262;28;20733;-67
2023/07/04 03:19:46;;;;;;;339.50;321.27;;;16.00;92.50;;;;;;5005196;28;20190;-67
2023/07/04 03:22:13;;;;;;;339.20;320.80;;;16.20;92.70;;;;;;5000834;28;20646;-68
2023/07/04 03:24:40;;;;;;;350.63;332.27;;;16.20;92.10;;;;;;5002361;28;20199;-66
2023/07/04 03:27:09;;;;;;;334.43;316.67;;;16.30;92.30;;;;;;5005446;28;20330;-66
2023/07/04 03:29:36;;;;;;;316.60;299.70;;;16.40;92.20;;;;;;5002870;28;20847;-68
2023/07/04 03:32:04;;;;;;;297.63;281.83;;;16.40;92.00;;;;;;4992735;28;20599;-68
2023/07/04 03:34:31;;;;;;;277.30;262.27;;;16.50;91.80;;;;;;5009864;28;20229;-69
2023/07/04 03:36:58;;;;;;;262.03;247.93;;;16.40;91.40;;;;;;5009044;28;20262;-67
2023/07/04 03:39:26;;;;;;;256.37;242.57;;;16.50;91.40;;;;;;5010138;28;20553;-67
2023/07/04 03:41:53;;;;;;;248.70;235.07;;;16.60;91.20;;;;;;5007306;28;20284;-66
2023/07/04 03:44:21;;;;;;;255.27;241.70;;;16.60;90.80;;;;;;5008990;28;20174;-68
2023/07/04 03:46:48;;;;;;;247.47;234.00;;;16.60;90.80;;;;;;5011681;28;20205;-68
2023/07/04 03:49:15;;;;;;;222.70;210.57;;;16.60;90.50;;;;;;4992898;28;20203;-67
2023/07/04 03:51:42;;;;;;;188.30;178.00;;;16.60;90.80;;;;;;5008893;28;20195;-68
2023/07/04 03:54:10;;;;;;;162.33;152.83;;;16.50;90.60;;;;;;5003609;28;20275;-68
2023/07/04 03:56:37;;;;;;;170.27;159.97;;;16.50;90.00;;;;;;5005123;28;20229;-69
2023/07/04 03:59:04;;;;;;;172.83;162.83;;;16.30;90.10;;;;;;5005500;28;20199;-69
2023/07/04 04:01:32;;;;;;;176.37;166.17;;;16.30;90.30;;;;;;5009286;28;20199;-69
2023/07/04 04:03:59;;;;;;;179.30;169.03;;;16.30;90.40;;;;;;5010164;28;20186;-69
2023/07/04 04:06:26;;;;;;;187.77;177.30;;;16.30;90.50;;;;;;5009721;28;20260;-69
2023/07/04 04:08:54;;;;;;;201.17;190.13;;;16.30;90.60;;;;;;5009514;28;20292;-70
2023/07/04 04:11:21;;;;;;;210.83;198.87;;;16.30;90.80;;;;;;5008351;28;20272;-69
2023/07/04 04:13:48;;;;;;;213.07;201.13;;;16.30;90.90;;;;;;5008939;28;20272;-70
2023/07/04 04:16:16;;;;;;;212.33;200.23;;;16.30;91.00;;;;;;5003383;28;20602;-69
2023/07/04 04:18:43;;;;;;;212.37;200.47;;;16.40;90.80;;;;;;5007528;28;20194;-68
2023/07/04 04:21:10;;;;;;;216.40;204.10;;;16.40;90.80;;;;;;5010760;28;20599;-68
2023/07/04 04:23:38;;;;;;;209.97;197.57;;;16.40;90.90;;;;;;5008611;28;20179;-68
2023/07/04 04:26:06;;;;;;;208.50;196.67;;;16.40;90.80;;;;;;5006300;28;20189;-69
2023/07/04 04:28:33;;;;;;;204.17;192.17;;;16.40;90.90;;;;;;5009345;28;20227;-69
2023/07/04 04:31:01;;;;;;;224.70;211.90;;;16.30;90.90;;;;;;5010931;28;20183;-68
2023/07/04 04:33:28;;;;;;;245.00;231.33;;;16.40;91.10;;;;;;5011187;28;20195;-70
2023/07/04 04:35:56;;;;;;;262.53;248.20;;;16.40;91.20;;;;;;5005810;28;20255;-68
2023/07/04 04:38:23;;;;;;;271.80;256.93;;;16.30;91.00;;;;;;5002711;28;20658;-68
2023/07/04 04:40:50;;;;;;;265.80;251.03;;;16.20;91.40;;;;;;5008446;28;20231;-68
2023/07/04 04:43:18;;;;;;;280.63;265.30;;;16.20;91.40;;;;;;5007631;28;20188;-68
2023/07/04 04:45:45;;;;;;;300.30;283.83;;;16.00;91.60;;;;;;5006679;28;20190;-67
2023/07/04 04:48:28;;;;;;;290.63;274.13;;;16.00;91.70;;;;;;5007364;28;20261;-69
2023/07/04 04:51:07;;;;;;;291.77;275.73;;;15.90;91.60;;;;;;5006463;28;20228;-69
2023/07/04 04:53:39;;;;;;;298.17;282.07;;;15.80;91.90;;;;;;5005498;28;20265;-67
2023/07/04 04:56:10;;;;;;;303.80;286.70;;;15.70;91.90;;;;;;5010971;28;20183;-68
2023/07/04 04:58:43;;;;;;;312.40;295.50;;;15.70;92.00;;;;;;5009307;28;20188;-68
2023/07/04 05:01:19;;;;;;;335.43;316.97;;;15.70;92.30;;;;;;5005882;28;20645;-68
2023/07/04 05:03:49;;;;;;;346.10;327.20;;;15.70;92.40;;;;;;5000221;28;20187;-68
2023/07/04 05:06:16;;;;;;;346.80;327.83;;;15.70;92.50;;;;;;5007494;28;20194;-67
2023/07/04 05:08:44;;;;;;;369.87;349.17;;;15.70;92.60;;;;;;5006336;28;20262;-68
2023/07/04 05:11:11;;;;;;;382.60;361.60;;;15.60;92.50;;;;;;5008045;28;20215;-67
2023/07/04 05:13:40;;;;;;;395.17;373.27;;;15.50;92.70;;;;;;4989330;28;20585;-67
2023/07/04 05:16:11;;;;;;;380.50;359.67;;;15.50;92.70;;;;;;5005055;28;20196;-66
2023/07/04 05:18:39;;;;;;;374.90;354.20;;;15.40;92.70;;;;;;5001697;28;20553;-68
2023/07/04 05:21:16;;;;;;;384.40;363.30;;;15.30;92.70;;;;;;5011242;28;20200;-68
2023/07/04 05:23:46;;;;;;;386.47;365.00;;;15.30;92.80;;;;;;5008680;28;20192;-68
2023/07/04 05:26:17;;;;;;;403.13;380.80;;;15.30;92.80;;;;;;5009032;28;20206;-68
2023/07/04 05:28:44;;;;;;;390.60;368.90;;;15.30;92.90;;;;;;5009015;28;20230;-68
2023/07/04 05:31:14;;;;;;;393.03;371.43;;;15.20;92.70;;;;;;5003567;28;20698;-67
2023/07/04 05:33:42;;;;;;;400.73;378.83;;;15.10;92.80;;;;;;5004098;28;20204;-68
2023/07/04 05:36:33;;;;;;;401.87;380.20;;;15.10;92.80;;;;;;5009091;28;20232;-67
2023/07/04 05:39:03;;;;;;;385.43;364.47;;;15.10;92.90;;;;;;4992656;28;20288;-69
2023/07/04 05:41:32;;;;;;;401.23;379.70;;;15.10;93.00;;;;;;5007683;28;20197;-67
2023/07/04 05:44:02;;;;;;;402.33;381.20;;;15.10;93.00;;;;;;5003140;28;20568;-67
2023/07/04 05:46:30;;;;;;;398.47;377.27;;;15.10;93.10;;;;;;5006001;28;20190;-66
2023/07/04 05:48:59;;;;;;;383.27;362.67;;;15.00;93.10;;;;;;5008015;28;20194;-67
2023/07/04 05:51:26;;;;;;;374.97;354.87;;;15.00;93.00;;;;;;5006465;28;20534;-67
2023/07/04 05:53:54;;;;;;;373.90;353.47;;;15.00;93.00;;;;;;5003465;28;20186;-66
2023/07/04 05:56:26;;;;;;;394.17;372.63;;;14.90;93.00;;;;;;5006220;28;20188;-67
2023/07/04 05:58:58;;;;;;;405.50;383.53;;;15.00;93.10;;;;;;4999748;28;20193;-67
2023/07/04 06:01:41;;;;;;;382.30;361.13;;;15.00;93.10;;;;;;5009548;28;20239;-71
2023/07/04 06:04:10;;;;;;;384.87;363.83;;;14.90;93.10;;;;;;5005870;28;20189;-66
2023/07/04 06:06:42;;;;;;;382.37;360.83;;;15.00;93.30;;;;;;5008112;28;20534;-68
2023/07/04 06:09:16;;;;;;;385.20;363.23;;;15.00;93.20;;;;;;5004969;28;20209;-67
2023/07/04 06:11:48;;;;;;;392.37;370.30;;;15.00;93.20;;;;;;5005221;28;20221;-70
2023/07/04 06:14:25;;;;;;;385.83;364.87;;;14.80;93.20;;;;;;5004746;28;20196;-67
2023/07/04 06:16:55;;;;;;;358.33;338.83;;;14.80;93.30;;;;;;5006266;28;20635;-68
2023/07/04 06:19:23;;;;;;;354.27;334.97;;;14.80;93.40;;;;;;5007353;28;20243;-66
2023/07/04 06:21:51;;;;;;;366.00;346.07;;;14.80;93.40;;;;;;5003399;28;20197;-67
2023/07/04 06:24:20;;;;;;;360.77;341.27;;;14.90;93.50;;;;;;5001156;28;20190;-67
2023/07/04 06:26:48;;;;;;;380.33;359.63;;;14.90;93.40;;;;;;5004738;28;20187;-67
2023/07/04 06:29:15;;;;;;;375.63;354.97;;;14.80;93.40;;;;;;5004419;28;20186;-67
2023/07/04 06:31:42;;;;;;;400.90;378.70;;;14.80;93.30;;;;;;5008498;28;20195;-68
2023/07/04 06:34:11;;;;;;;406.87;384.97;;;14.70;93.40;;;;;;5003836;28;20194;-66
2023/07/04 06:36:38;;;;;;;410.63;387.93;;;14.80;93.50;;;;;;5009996;28;20201;-67
2023/07/04 06:39:05;;;;;;;412.13;389.53;;;14.80;93.50;;;;;;5005504;28;20193;-67
2023/07/04 06:41:33;;;;;;;419.03;396.23;;;14.80;93.60;;;;;;5005336;28;20750;-67
2023/07/04 06:44:00;;;;;;;420.30;397.00;;;14.80;93.60;;;;;;5005587;28;20247;-66
2023/07/04 06:46:28;;;;;;;417.77;394.63;;;14.60;93.50;;;;;;4992600;28;20188;-66
2023/07/04 06:48:55;;;;;;;430.03;406.53;;;14.60;93.70;;;;;;5003386;28;20225;-66
2023/07/04 06:51:26;;;;;;;413.43;391.13;;;14.70;93.80;;;;;;5001614;28;20790;-68
2023/07/04 06:53:53;;;;;;;411.73;388.80;;;14.70;93.80;;;;;;5006009;28;20229;-67
2023/07/04 06:56:23;;;;;;;430.17;406.53;;;14.70;93.90;;;;;;5003289;28;20189;-67
2023/07/04 06:58:55;;;;;;;438.23;413.87;;;14.70;93.90;;;;;;4991880;28;20591;-66
2023/07/04 07:01:27;;;;;;;442.30;417.70;;;14.60;93.90;;;;;;5003718;28;20193;-66
2023/07/04 07:03:56;;;;;;;451.20;425.93;;;14.70;94.00;;;;;;5002766;28;20213;-66
2023/07/04 07:06:24;;;;;;;443.73;419.50;;;14.60;93.90;;;;;;5006982;28;20247;-67
2023/07/04 07:08:51;;;;;;;437.83;414.10;;;14.50;94.00;;;;;;5004084;28;20213;-66
2023/07/04 07:11:21;;;;;;;430.33;406.40;;;14.50;94.00;;;;;;5003249;28;20213;-66
2023/07/04 07:13:49;;;;;;;435.80;411.40;;;14.50;94.10;;;;;;5005125;28;20198;-67
2023/07/04 07:16:24;;;;;;;450.70;425.13;;;14.60;94.10;;;;;;5002805;28;20539;-68
2023/07/04 07:18:54;;;;;;;472.93;446.13;;;14.60;94.10;;;;;;4999668;28;20188;-66
2023/07/04 07:21:24;;;;;;;480.30;453.03;;;14.60;94.20;;;;;;5003929;28;20315;-68
2023/07/04 07:23:52;;;;;;;498.47;469.87;;;14.60;94.10;;;;;;5003347;28;20252;-69
2023/07/04 07:26:22;;;;;;;497.37;469.83;;;14.50;94.10;;;;;;5004590;28;20189;-66
2023/07/04 07:28:49;;;;;;;508.60;479.87;;;14.60;94.30;;;;;;5002282;28;20299;-65
2023/07/04 07:31:22;;;;;;;511.30;482.17;;;14.60;94.30;;;;;;5005373;28;20189;-66
2023/07/04 07:33:51;;;;;;;522.43;492.23;;;14.60;94.30;;;;;;5006874;28;20177;-66
2023/07/04 07:36:24;;;;;;;510.37;481.27;;;14.60;94.40;;;;;;5000551;28;20218;-69
2023/07/04 07:38:53;;;;;;;528.63;499.43;;;14.50;94.30;;;;;;5000373;28;20217;-66
2023/07/04 07:41:26;;;;;;;536.77;507.10;;;14.60;94.40;;;;;;5006672;28;20192;-67
2023/07/04 07:43:53;;;;;;;525.83;496.50;;;14.50;94.40;;;;;;4998094;28;20182;-64
2023/07/04 07:46:20;;;;;;;543.53;512.70;;;14.50;94.40;;;;;;4995947;28;20190;-67
2023/07/04 07:48:50;;;;;;;550.93;520.13;;;14.50;94.40;;;;;;5002319;28;20209;-68
2023/07/04 07:51:19;;;;;;;554.17;523.53;;;14.40;94.50;;;;;;5006622;28;20640;-67
2023/07/04 07:53:49;;;;;;;533.87;504.33;;;14.40;94.50;;;;;;5007595;28;20185;-66
2023/07/04 07:56:19;;;;;;;552.97;522.33;;;14.30;94.50;;;;;;5000991;28;20231;-66
2023/07/04 07:58:47;;;;;;;534.57;505.23;;;14.30;94.50;;;;;;5007346;28;20193;-66
2023/07/04 08:01:28;;;;;;;546.50;516.77;;;14.30;94.50;;;;;;5001228;28;20209;-67
2023/07/04 08:03:57;;;;;;;542.00;511.80;;;14.30;94.50;;;;;;5003635;28;20189;-66
2023/07/04 08:06:26;;;;;;;549.20;519.23;;;14.30;94.60;;;;;;4999752;28;20181;-66
2023/07/04 08:08:55;;;;;;;539.13;509.77;;;14.30;94.60;;;;;;5007227;28;20281;-66
2023/07/04 08:11:23;;;;;;;552.33;522.63;;;14.20;94.50;;;;;;5004339;28;20177;-68
2023/07/04 08:13:51;;;;;;;559.83;528.83;;;14.20;94.60;;;;;;5004220;28;20265;-67
2023/07/04 08:16:22;;;;;;;548.17;517.50;;;14.30;94.60;;;;;;5000659;28;20182;-68
2023/07/04 08:18:49;;;;;;;563.30;532.43;;;14.30;94.70;;;;;;5006222;28;20174;-67
2023/07/04 08:21:17;;;;;;;557.77;526.73;;;14.30;94.60;;;;;;5004469;28;20594;-67
2023/07/04 08:23:45;;;;;;;573.67;541.30;;;14.30;94.60;;;;;;5006892;28;20189;-67
2023/07/04 08:26:21;;;;;;;572.87;540.80;;;14.30;94.60;;;;;;4988424;28;20185;-67
2023/07/04 08:28:48;;;;;;;579.93;546.97;;;14.30;94.70;;;;;;5006219;28;20639;-66
2023/07/04 08:31:19;;;;;;;574.77;542.90;;;14.30;94.70;;;;;;5002164;28;20228;-66
2023/07/04 08:33:47;;;;;;;586.23;553.30;;;14.20;94.70;;;;;;5006238;28;20186;-67
2023/07/04 08:36:16;;;;;;;584.70;551.77;;;14.20;94.70;;;;;;5005246;28;20591;-68
2023/07/04 08:38:46;;;;;;;587.83;555.07;;;14.20;94.70;;;;;;5009500;28;20694;-66
2023/07/04 08:41:43;;;;;;;597.87;564.57;;;14.20;94.70;;;;;;5007802;28;20541;-67
2023/07/04 08:44:14;;;;;;;599.73;566.47;;;14.30;94.80;;;;;;5007479;28;20571;-67
2023/07/04 08:46:49;;;;;;;610.50;576.43;;;14.30;94.80;;;;;;5005824;28;20263;-67
2023/07/04 08:49:40;;;;;;;612.90;578.60;;;14.30;94.80;;;;;;5004644;28;20242;-67
2023/07/04 08:52:27;;;;;;;632.17;596.30;;;14.30;94.70;;;;;;5000675;28;20197;-67
2023/07/04 08:54:55;;;;;;;635.43;599.27;;;14.20;94.70;;;;;;5004922;28;20189;-66
2023/07/04 08:57:28;;;;;;;635.43;599.67;;;14.20;94.80;;;;;;5001973;28;20205;-67
2023/07/04 09:00:08;;;;;;;643.07;605.87;;;14.20;94.80;;;;;;5004359;28;20730;-66
2023/07/04 09:02:45;;;;;;;648.93;611.73;;;14.20;94.80;;;;;;5001565;28;20199;-69
2023/07/04 09:05:25;;;;;;;655.93;618.57;;;14.20;94.80;;;;;;5008748;28;20293;-71
2023/07/04 09:08:18;;;;;;;651.83;614.63;;;14.20;94.90;;;;;;5007199;28;20705;-67
2023/07/04 09:10:49;;;;;;;653.03;615.77;;;14.30;94.90;;;;;;4998749;28;20200;-67
2023/07/04 09:13:31;;;;;;;663.10;625.67;;;14.30;94.90;;;;;;5006050;28;20197;-66
2023/07/04 09:16:05;;;;;;;667.43;629.27;;;14.30;94.90;;;;;;5000679;28;20196;-67
2023/07/04 09:19:07;;;;;;;665.33;627.30;;;14.30;94.90;;;;;;5003664;28;20231;-68
2023/07/04 09:21:39;;;;;;;673.83;634.63;;;14.30;94.90;;;;;;5007326;28;20185;-66
2023/07/04 09:24:06;;;;;;;672.63;633.63;;;14.30;95.00;;;;;;5002302;28;20593;-66
2023/07/04 09:26:34;;;;;;;674.10;635.60;;;14.30;95.00;;;;;;5007606;28;20237;-67
2023/07/04 09:29:01;;;;;;;675.83;637.47;;;14.30;95.00;;;;;;5006106;28;20214;-68
2023/07/04 09:31:32;;;;;;;689.03;649.43;;;14.30;95.00;;;;;;5002941;28;20189;-67
2023/07/04 09:34:07;;;;;;;694.20;654.77;;;14.30;95.00;;;;;;5004152;28;20212;-67
2023/07/04 09:36:39;;;;;;;688.90;649.60;;;14.30;95.00;;;;;;5004338;28;20255;-67
2023/07/04 09:39:08;;;;;;;685.03;645.70;;;14.30;95.00;;;;;;5008655;28;20589;-68
2023/07/04 09:41:39;;;;;;;689.27;649.47;;;14.30;95.00;;;;;;5004152;28;20264;-67
2023/07/04 09:44:15;;;;;;;701.63;660.63;;;14.30;94.90;;;;;;5004505;28;20182;-67
2023/07/04 09:46:54;;;;;;;715.07;672.70;;;14.30;94.90;;;;;;5004809;28;20181;-69
2023/07/04 09:49:27;;;;;;;720.40;677.80;;;14.30;95.00;;;;;;5000774;28;20194;-67
2023/07/04 09:52:13;;;;;;;736.83;692.60;;;14.30;95.00;;;;;;5005759;28;20271;-67
2023/07/04 09:54:42;;;;;;;737.63;693.63;;;14.30;94.90;;;;;;5004125;28;20181;-67
2023/07/04 09:57:24;;;;;;;736.97;692.37;;;14.30;95.00;;;;;;5006323;28;20205;-66
2023/07/04 09:59:53;;;;;;;749.27;703.77;;;14.30;95.00;;;;;;5004183;28;20714;-67
2023/07/04 10:02:36;;;;;;;751.93;706.13;;;14.30;94.90;;;;;;5002225;28;20178;-67
2023/07/04 10:05:03;;;;;;;764.07;717.77;;;14.30;95.00;;;;;;5006506;28;20177;-67
2023/07/04 10:07:31;;;;;;;763.70;717.23;;;14.30;95.00;;;;;;5004338;28;20635;-68
2023/07/04 10:10:07;;;;;;;768.73;721.80;;;14.40;94.90;;;;;;5007142;28;20185;-68
2023/07/04 10:12:43;;;;;;;768.10;721.63;;;14.40;95.00;;;;;;5007163;28;20185;-67
2023/07/04 10:15:11;;;;;;;765.33;718.93;;;14.40;95.00;;;;;;5001610;28;20173;-67
2023/07/04 10:17:41;;;;;;;768.53;721.97;;;14.50;95.00;;;;;;5005077;28;20188;-67
2023/07/04 10:20:14;;;;;;;768.23;721.80;;;14.30;94.90;;;;;;4983736;28;20272;-67
2023/07/04 10:22:47;;;;;;;766.67;720.33;;;14.40;95.00;;;;;;5001518;28;20189;-66
2023/07/04 10:25:25;;;;;;;774.50;727.43;;;14.40;95.00;;;;;;5003656;28;20195;-68
2023/07/04 10:27:57;;;;;;;769.00;722.33;;;14.30;94.90;;;;;;5003348;28;20221;-67
2023/07/04 10:30:31;;;;;;;775.53;728.83;;;14.30;94.90;;;;;;5004550;28;20204;-68
2023/07/04 10:33:10;;;;;;;779.33;732.20;;;14.40;95.00;;;;;;5003062;28;20277;-66
2023/07/04 10:35:41;;;;;;;776.47;729.73;;;14.30;95.00;;;;;;5006516;28;20255;-66
2023/07/04 10:38:48;;;;;;;772.27;725.47;;;14.40;95.00;;;;;;5003867;28;20659;-67
2023/07/04 10:41:22;;;;;;;770.30;723.70;;;14.40;95.00;;;;;;4905591;29;20199;-66
2023/07/04 10:43:58;;;;;;;779.23;731.73;;;14.40;95.00;;;;;;4991523;28;20619;-68
2023/07/04 10:46:30;;;;;;;775.83;728.63;;;14.40;95.00;;;;;;5004526;28;20186;-67
2023/07/04 10:49:09;;;;;;;774.80;727.77;;;14.40;95.00;;;;;;5007152;28;20242;-67
2023/07/04 10:51:40;;;;;;;775.40;728.07;;;14.40;95.00;;;;;;5004083;28;20267;-67
2023/07/04 10:54:13;;;;;;;768.43;721.57;;;14.50;95.00;;;;;;4992018;28;20185;-66
2023/07/04 10:56:48;;;;;;;764.00;717.37;;;14.40;95.00;;;;;;5004142;28;20181;-66
2023/07/04 10:59:19;;;;;;;760.70;714.37;;;14.40;95.00;;;;;;5003709;28;20197;-67
2023/07/04 11:02:00;;;;;;;761.67;715.13;;;14.50;95.00;;;;;;5003751;28;20177;-66
2023/07/04 11:04:33;;;;;;;768.53;721.90;;;14.40;94.90;;;;;;5007119;28;20228;-66
2023/07/04 11:07:05;;;;;;;776.53;729.00;;;14.40;95.00;;;;;;5007317;28;20243;-67
2023/07/04 11:09:39;;;;;;;775.93;728.83;;;14.50;95.00;;;;;;5005014;28;20534;-67
2023/07/04 11:12:12;;;;;;;769.90;722.80;;;14.50;95.00;;;;;;5006832;28;20235;-66
2023/07/04 11:14:42;;;;;;;766.13;718.87;;;14.50;95.00;;;;;;5002414;28;20317;-66
2023/07/04 11:17:17;;;;;;;764.87;718.03;;;14.50;95.00;;;;;;5003967;28;20216;-67
2023/07/04 11:20:19;;;;;;;763.57;716.57;;;14.50;95.00;;;;;;4992472;28;20560;-67
2023/07/04 11:22:53;;;;;;;760.93;714.13;;;14.50;94.90;;;;;;4985472;28;20222;-67
2023/07/04 11:25:36;;;;;;;774.50;726.20;;;14.50;95.00;;;;;;5003083;28;20648;-67
2023/07/04 11:28:18;;;;;;;773.40;725.37;;;14.50;95.00;;;;;;5004934;28;20231;-67
2023/07/04 11:30:49;;;;;;;782.07;733.90;;;14.50;94.90;;;;;;5006027;28;20278;-66
2023/07/04 11:33:38;;;;;;;786.63;737.93;;;14.40;94.90;;;;;;5003982;28;20240;-66
2023/07/04 11:36:09;;;;;;;775.80;727.27;;;14.40;95.00;;;;;;5004938;28;20565;-67
2023/07/04 11:38:43;;;;;;;779.97;731.50;;;14.40;95.00;;;;;;5000477;28;20236;-66
2023/07/04 11:41:10;;;;;;;769.07;720.73;;;14.40;95.00;;;;;;5004928;28;20193;-68
2023/07/04 11:43:45;;;;;;;771.43;723.33;;;14.40;95.00;;;;;;5004131;28;20212;-66
2023/07/04 11:46:26;;;;;;;779.73;730.83;;;14.40;95.00;;;;;;5002803;28;20193;-71
2023/07/04 11:48:57;;;;;;;790.60;741.03;;;14.40;94.90;;;;;;5005217;28;20261;-67
2023/07/04 11:51:29;;;;;;;781.50;732.40;;;14.40;95.00;;;;;;5004963;28;20195;-66
2023/07/04 11:53:59;;;;;;;787.97;738.60;;;14.40;95.00;;;;;;5009427;28;20190;-67
2023/07/04 11:56:29;;;;;;;792.60;742.80;;;14.40;95.00;;;;;;5007052;28;20763;-66
2023/07/04 11:59:17;;;;;;;791.77;741.63;;;14.40;95.00;;;;;;5010848;28;20174;-67
2023/07/04 12:02:03;;;;;;;795.87;745.60;;;14.40;95.00;;;;;;5007251;28;20186;-66
2023/07/04 12:04:39;;;;;;;797.30;746.83;;;14.40;95.00;;;;;;5003745;28;20189;-67
2023/07/04 12:07:29;;;;;;;799.20;748.33;;;14.40;95.00;;;;;;5009500;28;20209;-67
2023/07/04 12:10:11;;;;;;;791.50;740.73;;;14.40;95.00;;;;;;4996388;28;20216;-68
2023/07/04 12:12:38;;;;;;;791.30;740.73;;;14.40;95.00;;;;;;5008867;28;20225;-66
2023/07/04 12:15:09;;;;;;;804.63;753.27;;;14.30;95.00;;;;;;5003961;28;20252;-67
2023/07/04 12:17:44;;;;;;;810.10;758.83;;;14.40;95.00;;;;;;5009883;28;20193;-67
2023/07/04 12:20:14;;;;;;;776.17;728.00;;;14.40;95.00;;;;;;5009722;28;20223;-67
2023/07/04 12:22:53;;;;;;;778.63;730.70;;;14.30;95.00;;;;;;5006037;28;20193;-67
2023/07/04 12:25:36;;;;;;;772.93;725.57;;;14.30;95.10;;;;;;5004472;28;20197;-68
2023/07/04 12:28:04;;;;;;;767.77;721.03;;;14.30;95.00;;;;;;5006862;28;20259;-69
2023/07/04 12:30:32;;;;;;;769.60;722.77;;;14.30;95.00;;;;;;5008421;28;20197;-69